This is the latest recevied weather packets stored in our database for station/object W4NRG-1. If no packets are shown the sender has not sent any weather packets the latest 10 day(s).
| Time | Temp. | Humidity | Pressure | Rain* | Wind** | Luminosity | Snow |
|---|---|---|---|---|---|---|---|
| 1777516747 | - | - | - | 0 mm | - | - | - |
| 1777516442 | - | - | - | 0 mm | - | - | - |
| 1777516138 | - | - | - | 0 mm | - | - | - |
| 1777515835 | - | - | - | 0 mm | - | - | - |
| 1777515532 | - | - | - | 0 mm | - | - | - |
| 1777515229 | 12.78° C | 89% | 1009.3 hPa | 0 mm | - | - | - |
| 1777514924 | 12.78° C | 89% | 1009.2 hPa | 0 mm | - | - | - |
| 1777514622 | 12.78° C | 89% | 1009.4 hPa | 0 mm | - | - | - |
| 1777514319 | 12.78° C | 89% | 1009.3 hPa | 0 mm | - | - | - |
| 1777514015 | 12.78° C | 89% | 1009.5 hPa | 0 mm | - | - | - |
| 1777513713 | 12.78° C | 89% | 1009.2 hPa | 0 mm | - | - | - |
| 1777513410 | 12.78° C | 89% | 1009.6 hPa | 0 mm | - | - | - |
| 1777513106 | 12.78° C | 90% | 1009.5 hPa | 0 mm | - | - | - |
| 1777511893 | 12.22° C | 91% | 1009.5 hPa | 0 mm | - | - | - |
| 1777511591 | 12.22° C | 91% | 1009.4 hPa | 0 mm | - | - | - |
| 1777511289 | 12.22° C | 91% | 1009.4 hPa | 0 mm | - | - | - |
| 1777509470 | 12.22° C | 89% | 1009.3 hPa | 0 mm | - | - | - |
| 1777509169 | 12.22° C | 89% | 1009.2 hPa | 0 mm | - | - | - |
| 1777508866 | 12.78° C | 88% | 1009.4 hPa | 0 mm | - | - | - |
| 1777508259 | 12.78° C | 88% | 1009.3 hPa | 0 mm | - | - | - |
| 1777507048 | 13.89° C | 82% | 1009.5 hPa | 3.05 mm | - | - | - |
| 1777502193 | 16.11° C | 69% | 1009.8 hPa | 0 mm | - | - | - |
| 1777501284 | 16.11° C | 67% | 1009.7 hPa | 0 mm | - | - | - |
| 1777499769 | 17.22° C | 67% | 1010.1 hPa | 0 mm | - | - | - |
| 1777496433 | 17.78° C | 65% | 1010 hPa | 0 mm | - | - | - |
* Rain latest hour (hover to see other rain measurements)
** Current wind speed in m/s (hover to see current wind gust speed)